sensor_id;sensor_type;location;lat;lon;timestamp;P1;durP1;ratioP1;P2;durP2;ratioP2
33266;SDS011;19638;49.080;11.896;2023-08-17T00:00:01;11.20;;;8.23;;
33266;SDS011;19638;49.080;11.896;2023-08-17T00:04:09;12.82;;;8.20;;
33266;SDS011;19638;49.080;11.896;2023-08-17T00:08:14;11.90;;;8.68;;
33266;SDS011;19638;49.080;11.896;2023-08-17T00:12:18;14.18;;;9.60;;
33266;SDS011;19638;49.080;11.896;2023-08-17T00:16:28;12.70;;;9.13;;
33266;SDS011;19638;49.080;11.896;2023-08-17T00:20:31;17.13;;;9.60;;
33266;SDS011;19638;49.080;11.896;2023-08-17T00:24:37;13.10;;;9.18;;
33266;SDS011;19638;49.080;11.896;2023-08-17T00:28:44;14.10;;;9.55;;
33266;SDS011;19638;49.080;11.896;2023-08-17T00:32:48;14.68;;;9.02;;
33266;SDS011;19638;49.080;11.896;2023-08-17T00:36:51;11.52;;;8.82;;
33266;SDS011;19638;49.080;11.896;2023-08-17T00:40:56;12.23;;;7.82;;
33266;SDS011;19638;49.080;11.896;2023-08-17T00:44:59;14.23;;;9.05;;
33266;SDS011;19638;49.080;11.896;2023-08-17T00:49:03;13.15;;;9.38;;
33266;SDS011;19638;49.080;11.896;2023-08-17T00:53:07;13.77;;;8.77;;
33266;SDS011;19638;49.080;11.896;2023-08-17T00:57:16;12.57;;;8.82;;
33266;SDS011;19638;49.080;11.896;2023-08-17T01:01:25;14.43;;;8.88;;
33266;SDS011;19638;49.080;11.896;2023-08-17T01:05:31;15.48;;;9.07;;
33266;SDS011;19638;49.080;11.896;2023-08-17T01:09:35;11.55;;;8.88;;
33266;SDS011;19638;49.080;11.896;2023-08-17T01:13:44;12.15;;;8.85;;
33266;SDS011;19638;49.080;11.896;2023-08-17T01:18:00;11.88;;;8.15;;
33266;SDS011;19638;49.080;11.896;2023-08-17T01:22:13;17.98;;;8.68;;
33266;SDS011;19638;49.080;11.896;2023-08-17T01:26:21;15.30;;;8.73;;
33266;SDS011;19638;49.080;11.896;2023-08-17T01:30:26;17.25;;;9.55;;
33266;SDS011;19638;49.080;11.896;2023-08-17T01:34:29;14.43;;;9.40;;
33266;SDS011;19638;49.080;11.896;2023-08-17T01:38:37;16.08;;;9.52;;
33266;SDS011;19638;49.080;11.896;2023-08-17T01:42:44;13.43;;;9.48;;
33266;SDS011;19638;49.080;11.896;2023-08-17T01:46:55;16.60;;;10.45;;
33266;SDS011;19638;49.080;11.896;2023-08-17T01:51:00;12.85;;;8.60;;
33266;SDS011;19638;49.080;11.896;2023-08-17T01:55:04;13.52;;;9.00;;
33266;SDS011;19638;49.080;11.896;2023-08-17T01:59:10;13.13;;;8.73;;
33266;SDS011;19638;49.080;11.896;2023-08-17T02:03:16;12.70;;;9.35;;
33266;SDS011;19638;49.080;11.896;2023-08-17T02:07:25;14.98;;;9.70;;
33266;SDS011;19638;49.080;11.896;2023-08-17T02:11:29;13.95;;;9.75;;
33266;SDS011;19638;49.080;11.896;2023-08-17T02:15:33;19.92;;;10.18;;
33266;SDS011;19638;49.080;11.896;2023-08-17T02:19:40;16.17;;;11.15;;
33266;SDS011;19638;49.080;11.896;2023-08-17T02:23:46;20.33;;;10.15;;
33266;SDS011;19638;49.080;11.896;2023-08-17T02:27:49;16.23;;;11.38;;
33266;SDS011;19638;49.080;11.896;2023-08-17T02:31:57;13.02;;;10.15;;
33266;SDS011;19638;49.080;11.896;2023-08-17T02:36:05;15.88;;;10.52;;
33266;SDS011;19638;49.080;11.896;2023-08-17T02:40:09;15.65;;;11.43;;
33266;SDS011;19638;49.080;11.896;2023-08-17T02:44:16;20.52;;;13.23;;
33266;SDS011;19638;49.080;11.896;2023-08-17T02:48:21;15.80;;;11.52;;
33266;SDS011;19638;49.080;11.896;2023-08-17T02:52:25;17.20;;;10.63;;
33266;SDS011;19638;49.080;11.896;2023-08-17T02:56:31;17.95;;;11.93;;
33266;SDS011;19638;49.080;11.896;2023-08-17T03:00:34;19.42;;;12.80;;
33266;SDS011;19638;49.080;11.896;2023-08-17T03:04:39;18.40;;;12.07;;
33266;SDS011;19638;49.080;11.896;2023-08-17T03:08:45;22.42;;;14.88;;
33266;SDS011;19638;49.080;11.896;2023-08-17T03:12:49;24.23;;;13.40;;
33266;SDS011;19638;49.080;11.896;2023-08-17T03:16:52;26.80;;;14.90;;
33266;SDS011;19638;49.080;11.896;2023-08-17T03:20:57;31.17;;;16.52;;
33266;SDS011;19638;49.080;11.896;2023-08-17T03:25:00;30.92;;;16.45;;
33266;SDS011;19638;49.080;11.896;2023-08-17T03:29:04;23.92;;;14.32;;
33266;SDS011;19638;49.080;11.896;2023-08-17T03:33:07;17.20;;;11.70;;
33266;SDS011;19638;49.080;11.896;2023-08-17T03:37:13;14.13;;;10.60;;
33266;SDS011;19638;49.080;11.896;2023-08-17T03:41:19;19.63;;;12.48;;
33266;SDS011;19638;49.080;11.896;2023-08-17T03:45:24;23.23;;;12.55;;
33266;SDS011;19638;49.080;11.896;2023-08-17T03:49:28;19.27;;;12.70;;
33266;SDS011;19638;49.080;11.896;2023-08-17T03:53:37;20.83;;;13.65;;
33266;SDS011;19638;49.080;11.896;2023-08-17T03:57:40;20.00;;;14.05;;
33266;SDS011;19638;49.080;11.896;2023-08-17T04:01:43;25.10;;;14.80;;
33266;SDS011;19638;49.080;11.896;2023-08-17T04:05:49;21.98;;;12.45;;
33266;SDS011;19638;49.080;11.896;2023-08-17T04:09:56;18.73;;;12.15;;
33266;SDS011;19638;49.080;11.896;2023-08-17T04:13:59;16.55;;;11.10;;
33266;SDS011;19638;49.080;11.896;2023-08-17T04:18:02;19.30;;;12.32;;
33266;SDS011;19638;49.080;11.896;2023-08-17T04:22:08;17.90;;;11.80;;
33266;SDS011;19638;49.080;11.896;2023-08-17T04:26:16;19.70;;;11.57;;
33266;SDS011;19638;49.080;11.896;2023-08-17T04:30:19;28.25;;;11.60;;
33266;SDS011;19638;49.080;11.896;2023-08-17T04:34:22;17.05;;;11.10;;
33266;SDS011;19638;49.080;11.896;2023-08-17T04:38:29;18.08;;;11.45;;
33266;SDS011;19638;49.080;11.896;2023-08-17T04:42:35;19.95;;;10.85;;
33266;SDS011;19638;49.080;11.896;2023-08-17T04:46:40;15.98;;;10.45;;
33266;SDS011;19638;49.080;11.896;2023-08-17T04:50:50;18.35;;;10.40;;
33266;SDS011;19638;49.080;11.896;2023-08-17T04:54:53;14.80;;;11.18;;
33266;SDS011;19638;49.080;11.896;2023-08-17T04:58:58;22.10;;;11.30;;
33266;SDS011;19638;49.080;11.896;2023-08-17T05:03:04;16.52;;;10.73;;
33266;SDS011;19638;49.080;11.896;2023-08-17T05:07:24;14.43;;;10.70;;
33266;SDS011;19638;49.080;11.896;2023-08-17T05:11:27;16.65;;;10.45;;
33266;SDS011;19638;49.080;11.896;2023-08-17T05:15:34;18.00;;;11.30;;
33266;SDS011;19638;49.080;11.896;2023-08-17T05:19:38;21.75;;;11.23;;
33266;SDS011;19638;49.080;11.896;2023-08-17T05:23:43;14.23;;;10.48;;
33266;SDS011;19638;49.080;11.896;2023-08-17T05:27:46;13.23;;;11.15;;
33266;SDS011;19638;49.080;11.896;2023-08-17T05:31:54;19.55;;;10.27;;
33266;SDS011;19638;49.080;11.896;2023-08-17T05:35:59;13.40;;;10.77;;
33266;SDS011;19638;49.080;11.896;2023-08-17T05:40:02;17.70;;;10.65;;
33266;SDS011;19638;49.080;11.896;2023-08-17T05:44:11;14.20;;;10.15;;
33266;SDS011;19638;49.080;11.896;2023-08-17T05:48:19;12.50;;;8.95;;
33266;SDS011;19638;49.080;11.896;2023-08-17T05:52:27;13.32;;;9.55;;
33266;SDS011;19638;49.080;11.896;2023-08-17T05:56:30;15.65;;;9.45;;
33266;SDS011;19638;49.080;11.896;2023-08-17T06:00:35;16.13;;;9.07;;
33266;SDS011;19638;49.080;11.896;2023-08-17T06:04:43;14.23;;;10.13;;
33266;SDS011;19638;49.080;11.896;2023-08-17T06:08:48;12.55;;;10.27;;
33266;SDS011;19638;49.080;11.896;2023-08-17T06:12:51;12.85;;;10.07;;
33266;SDS011;19638;49.080;11.896;2023-08-17T06:16:58;12.15;;;9.75;;
33266;SDS011;19638;49.080;11.896;2023-08-17T06:21:03;17.65;;;10.23;;
33266;SDS011;19638;49.080;11.896;2023-08-17T06:25:09;16.65;;;11.63;;
33266;SDS011;19638;49.080;11.896;2023-08-17T06:29:12;16.92;;;11.07;;
33266;SDS011;19638;49.080;11.896;2023-08-17T06:33:18;13.90;;;10.30;;
33266;SDS011;19638;49.080;11.896;2023-08-17T06:37:23;11.60;;;10.30;;
33266;SDS011;19638;49.080;11.896;2023-08-17T06:41:30;13.60;;;9.52;;
33266;SDS011;19638;49.080;11.896;2023-08-17T06:45:37;10.27;;;9.18;;
33266;SDS011;19638;49.080;11.896;2023-08-17T06:49:41;14.02;;;9.57;;
33266;SDS011;19638;49.080;11.896;2023-08-17T06:53:48;15.60;;;10.00;;
33266;SDS011;19638;49.080;11.896;2023-08-17T06:57:53;14.93;;;9.52;;
33266;SDS011;19638;49.080;11.896;2023-08-17T07:01:58;10.90;;;9.52;;
33266;SDS011;19638;49.080;11.896;2023-08-17T07:06:08;11.77;;;9.63;;
33266;SDS011;19638;49.080;11.896;2023-08-17T07:10:14;11.77;;;9.25;;
33266;SDS011;19638;49.080;11.896;2023-08-17T07:14:26;15.98;;;10.52;;
33266;SDS011;19638;49.080;11.896;2023-08-17T07:18:30;20.10;;;10.32;;
33266;SDS011;19638;49.080;11.896;2023-08-17T07:22:36;14.70;;;10.25;;
33266;SDS011;19638;49.080;11.896;2023-08-17T07:26:42;18.65;;;9.43;;
33266;SDS011;19638;49.080;11.896;2023-08-17T07:30:47;11.95;;;10.05;;
33266;SDS011;19638;49.080;11.896;2023-08-17T07:34:50;14.55;;;9.85;;
33266;SDS011;19638;49.080;11.896;2023-08-17T07:38:53;13.60;;;9.82;;
33266;SDS011;19638;49.080;11.896;2023-08-17T07:42:58;11.65;;;9.15;;
33266;SDS011;19638;49.080;11.896;2023-08-17T07:47:13;17.58;;;9.68;;
33266;SDS011;19638;49.080;11.896;2023-08-17T07:51:17;12.80;;;9.85;;
33266;SDS011;19638;49.080;11.896;2023-08-17T07:55:20;11.43;;;9.32;;
33266;SDS011;19638;49.080;11.896;2023-08-17T07:59:26;11.50;;;8.73;;
33266;SDS011;19638;49.080;11.896;2023-08-17T08:03:29;12.10;;;9.23;;
33266;SDS011;19638;49.080;11.896;2023-08-17T08:07:34;10.57;;;9.13;;
33266;SDS011;19638;49.080;11.896;2023-08-17T08:11:38;11.55;;;9.15;;
33266;SDS011;19638;49.080;11.896;2023-08-17T08:15:44;9.45;;;8.45;;
33266;SDS011;19638;49.080;11.896;2023-08-17T08:19:47;10.75;;;9.32;;
33266;SDS011;19638;49.080;11.896;2023-08-17T08:23:57;11.82;;;8.35;;
33266;SDS011;19638;49.080;11.896;2023-08-17T08:28:03;11.95;;;8.30;;
33266;SDS011;19638;49.080;11.896;2023-08-17T08:32:08;10.55;;;8.73;;
33266;SDS011;19638;49.080;11.896;2023-08-17T08:36:11;10.63;;;8.50;;
33266;SDS011;19638;49.080;11.896;2023-08-17T08:40:17;14.38;;;8.48;;
33266;SDS011;19638;49.080;11.896;2023-08-17T08:44:21;8.85;;;8.00;;
33266;SDS011;19638;49.080;11.896;2023-08-17T08:48:28;10.02;;;8.68;;
33266;SDS011;19638;49.080;11.896;2023-08-17T08:52:34;13.00;;;9.63;;
33266;SDS011;19638;49.080;11.896;2023-08-17T08:56:41;16.60;;;8.82;;
33266;SDS011;19638;49.080;11.896;2023-08-17T09:00:50;14.60;;;10.27;;
33266;SDS011;19638;49.080;11.896;2023-08-17T09:04:56;13.48;;;9.57;;
33266;SDS011;19638;49.080;11.896;2023-08-17T09:08:59;10.13;;;9.02;;
33266;SDS011;19638;49.080;11.896;2023-08-17T09:13:05;12.80;;;9.32;;
33266;SDS011;19638;49.080;11.896;2023-08-17T09:17:08;12.77;;;8.95;;
33266;SDS011;19638;49.080;11.896;2023-08-17T09:21:21;14.32;;;9.30;;
33266;SDS011;19638;49.080;11.896;2023-08-17T09:25:25;11.00;;;9.07;;
33266;SDS011;19638;49.080;11.896;2023-08-17T09:29:28;12.52;;;9.65;;
33266;SDS011;19638;49.080;11.896;2023-08-17T09:33:35;11.63;;;9.15;;
33266;SDS011;19638;49.080;11.896;2023-08-17T09:37:40;11.32;;;9.13;;
33266;SDS011;19638;49.080;11.896;2023-08-17T09:41:43;9.75;;;8.75;;
33266;SDS011;19638;49.080;11.896;2023-08-17T09:45:47;10.95;;;7.90;;
33266;SDS011;19638;49.080;11.896;2023-08-17T09:49:53;10.98;;;8.20;;
33266;SDS011;19638;49.080;11.896;2023-08-17T09:53:58;10.07;;;8.52;;
33266;SDS011;19638;49.080;11.896;2023-08-17T09:58:03;11.43;;;7.60;;
33266;SDS011;19638;49.080;11.896;2023-08-17T10:02:09;12.35;;;8.05;;
33266;SDS011;19638;49.080;11.896;2023-08-17T10:06:20;11.38;;;7.68;;
33266;SDS011;19638;49.080;11.896;2023-08-17T10:10:30;11.20;;;8.18;;
33266;SDS011;19638;49.080;11.896;2023-08-17T10:14:39;9.93;;;7.95;;
33266;SDS011;19638;49.080;11.896;2023-08-17T10:18:54;9.00;;;8.00;;
33266;SDS011;19638;49.080;11.896;2023-08-17T10:23:05;10.38;;;7.85;;
33266;SDS011;19638;49.080;11.896;2023-08-17T10:27:15;8.23;;;7.25;;
33266;SDS011;19638;49.080;11.896;2023-08-17T10:31:19;8.05;;;7.15;;
33266;SDS011;19638;49.080;11.896;2023-08-17T10:35:25;11.43;;;7.97;;
33266;SDS011;19638;49.080;11.896;2023-08-17T10:39:29;8.80;;;7.53;;
33266;SDS011;19638;49.080;11.896;2023-08-17T10:43:34;8.10;;;7.30;;
33266;SDS011;19638;49.080;11.896;2023-08-17T10:47:37;8.93;;;7.47;;
33266;SDS011;19638;49.080;11.896;2023-08-17T10:51:41;10.13;;;7.30;;
33266;SDS011;19638;49.080;11.896;2023-08-17T10:56:03;7.57;;;6.95;;
33266;SDS011;19638;49.080;11.896;2023-08-17T11:00:15;9.23;;;7.20;;
33266;SDS011;19638;49.080;11.896;2023-08-17T11:04:27;10.73;;;8.05;;
33266;SDS011;19638;49.080;11.896;2023-08-17T11:08:38;8.77;;;6.50;;
33266;SDS011;19638;49.080;11.896;2023-08-17T11:12:44;8.63;;;7.70;;
33266;SDS011;19638;49.080;11.896;2023-08-17T11:16:55;9.15;;;8.23;;
33266;SDS011;19638;49.080;11.896;2023-08-17T11:20:58;11.05;;;7.35;;
33266;SDS011;19638;49.080;11.896;2023-08-17T11:25:03;9.45;;;7.70;;
33266;SDS011;19638;49.080;11.896;2023-08-17T11:29:07;7.00;;;6.30;;
33266;SDS011;19638;49.080;11.896;2023-08-17T11:33:16;7.80;;;7.00;;
33266;SDS011;19638;49.080;11.896;2023-08-17T11:37:21;7.20;;;6.22;;
33266;SDS011;19638;49.080;11.896;2023-08-17T11:41:25;10.80;;;6.38;;
33266;SDS011;19638;49.080;11.896;2023-08-17T11:45:28;6.78;;;6.07;;
33266;SDS011;19638;49.080;11.896;2023-08-17T11:49:33;8.35;;;6.70;;
33266;SDS011;19638;49.080;11.896;2023-08-17T11:53:47;6.30;;;5.70;;
33266;SDS011;19638;49.080;11.896;2023-08-17T11:57:51;7.18;;;5.47;;
33266;SDS011;19638;49.080;11.896;2023-08-17T12:01:59;6.68;;;6.03;;
33266;SDS011;19638;49.080;11.896;2023-08-17T12:06:05;11.73;;;5.47;;
33266;SDS011;19638;49.080;11.896;2023-08-17T12:10:08;6.53;;;5.72;;
33266;SDS011;19638;49.080;11.896;2023-08-17T12:14:16;9.10;;;6.40;;
33266;SDS011;19638;49.080;11.896;2023-08-17T12:18:27;11.35;;;6.85;;
33266;SDS011;19638;49.080;11.896;2023-08-17T12:22:41;7.72;;;6.25;;
33266;SDS011;19638;49.080;11.896;2023-08-17T12:26:44;7.60;;;6.60;;
33266;SDS011;19638;49.080;11.896;2023-08-17T12:30:59;10.90;;;6.72;;
33266;SDS011;19638;49.080;11.896;2023-08-17T12:35:10;11.45;;;6.53;;
33266;SDS011;19638;49.080;11.896;2023-08-17T12:39:15;7.55;;;6.75;;
33266;SDS011;19638;49.080;11.896;2023-08-17T12:43:19;11.88;;;7.13;;
33266;SDS011;19638;49.080;11.896;2023-08-17T12:47:22;6.50;;;5.55;;
33266;SDS011;19638;49.080;11.896;2023-08-17T12:51:26;9.30;;;6.00;;
33266;SDS011;19638;49.080;11.896;2023-08-17T12:55:30;9.13;;;6.32;;
33266;SDS011;19638;49.080;11.896;2023-08-17T12:59:34;8.77;;;6.28;;
33266;SDS011;19638;49.080;11.896;2023-08-17T13:03:37;8.52;;;6.25;;
33266;SDS011;19638;49.080;11.896;2023-08-17T13:07:41;6.22;;;5.63;;
33266;SDS011;19638;49.080;11.896;2023-08-17T13:11:47;6.57;;;6.00;;
33266;SDS011;19638;49.080;11.896;2023-08-17T13:15:50;12.65;;;6.35;;
33266;SDS011;19638;49.080;11.896;2023-08-17T13:19:55;7.47;;;6.57;;
33266;SDS011;19638;49.080;11.896;2023-08-17T13:23:59;9.30;;;6.45;;
33266;SDS011;19638;49.080;11.896;2023-08-17T13:28:15;6.38;;;5.72;;
33266;SDS011;19638;49.080;11.896;2023-08-17T13:32:19;7.00;;;6.30;;
33266;SDS011;19638;49.080;11.896;2023-08-17T13:36:24;8.02;;;5.68;;
33266;SDS011;19638;49.080;11.896;2023-08-17T13:40:29;8.55;;;5.72;;
33266;SDS011;19638;49.080;11.896;2023-08-17T13:44:41;7.63;;;6.68;;
33266;SDS011;19638;49.080;11.896;2023-08-17T13:48:47;10.43;;;6.32;;
33266;SDS011;19638;49.080;11.896;2023-08-17T13:52:53;6.20;;;5.70;;
33266;SDS011;19638;49.080;11.896;2023-08-17T13:56:56;12.75;;;4.95;;
33266;SDS011;19638;49.080;11.896;2023-08-17T14:01:09;5.72;;;5.07;;
33266;SDS011;19638;49.080;11.896;2023-08-17T14:05:16;8.27;;;5.97;;
33266;SDS011;19638;49.080;11.896;2023-08-17T14:09:21;12.75;;;6.00;;
33266;SDS011;19638;49.080;11.896;2023-08-17T14:13:24;6.03;;;5.53;;
33266;SDS011;19638;49.080;11.896;2023-08-17T14:17:30;6.35;;;5.25;;
33266;SDS011;19638;49.080;11.896;2023-08-17T14:21:36;8.02;;;4.95;;
33266;SDS011;19638;49.080;11.896;2023-08-17T14:25:40;6.70;;;4.90;;
33266;SDS011;19638;49.080;11.896;2023-08-17T14:29:44;6.97;;;5.13;;
33266;SDS011;19638;49.080;11.896;2023-08-17T14:33:50;5.65;;;5.05;;
33266;SDS011;19638;49.080;11.896;2023-08-17T14:37:53;6.13;;;4.78;;
33266;SDS011;19638;49.080;11.896;2023-08-17T14:42:02;8.43;;;5.78;;
33266;SDS011;19638;49.080;11.896;2023-08-17T14:46:09;6.05;;;5.35;;
33266;SDS011;19638;49.080;11.896;2023-08-17T14:50:18;8.60;;;5.43;;
33266;SDS011;19638;49.080;11.896;2023-08-17T14:54:22;6.68;;;4.82;;
33266;SDS011;19638;49.080;11.896;2023-08-17T14:58:26;9.95;;;5.72;;
33266;SDS011;19638;49.080;11.896;2023-08-17T15:02:29;6.97;;;5.32;;
33266;SDS011;19638;49.080;11.896;2023-08-17T15:06:37;6.43;;;4.82;;
33266;SDS011;19638;49.080;11.896;2023-08-17T15:10:43;5.68;;;5.15;;
33266;SDS011;19638;49.080;11.896;2023-08-17T15:14:46;7.82;;;5.10;;
33266;SDS011;19638;49.080;11.896;2023-08-17T15:18:53;7.85;;;5.15;;
33266;SDS011;19638;49.080;11.896;2023-08-17T15:23:01;5.07;;;4.68;;
33266;SDS011;19638;49.080;11.896;2023-08-17T15:27:08;8.88;;;5.00;;
33266;SDS011;19638;49.080;11.896;2023-08-17T15:31:11;5.45;;;4.95;;
33266;SDS011;19638;49.080;11.896;2023-08-17T15:35:19;9.27;;;4.97;;
33266;SDS011;19638;49.080;11.896;2023-08-17T15:39:23;4.75;;;4.35;;
33266;SDS011;19638;49.080;11.896;2023-08-17T15:43:26;5.82;;;4.53;;
33266;SDS011;19638;49.080;11.896;2023-08-17T15:47:30;5.32;;;4.75;;
33266;SDS011;19638;49.080;11.896;2023-08-17T15:51:36;6.25;;;4.70;;
33266;SDS011;19638;49.080;11.896;2023-08-17T15:55:40;5.10;;;4.68;;
33266;SDS011;19638;49.080;11.896;2023-08-17T15:59:44;8.52;;;5.13;;
33266;SDS011;19638;49.080;11.896;2023-08-17T16:03:54;6.03;;;4.43;;
33266;SDS011;19638;49.080;11.896;2023-08-17T16:07:58;5.13;;;4.72;;
33266;SDS011;19638;49.080;11.896;2023-08-17T16:12:03;5.75;;;4.68;;
33266;SDS011;19638;49.080;11.896;2023-08-17T16:16:10;7.70;;;4.72;;
33266;SDS011;19638;49.080;11.896;2023-08-17T16:20:18;5.60;;;5.05;;
33266;SDS011;19638;49.080;11.896;2023-08-17T16:24:25;6.05;;;4.78;;
33266;SDS011;19638;49.080;11.896;2023-08-17T16:28:31;6.07;;;4.70;;
33266;SDS011;19638;49.080;11.896;2023-08-17T16:32:36;7.25;;;5.28;;
33266;SDS011;19638;49.080;11.896;2023-08-17T16:36:40;7.63;;;4.60;;
33266;SDS011;19638;49.080;11.896;2023-08-17T16:40:46;5.15;;;4.72;;
33266;SDS011;19638;49.080;11.896;2023-08-17T16:44:55;8.32;;;4.90;;
33266;SDS011;19638;49.080;11.896;2023-08-17T16:49:05;7.03;;;5.22;;
33266;SDS011;19638;49.080;11.896;2023-08-17T16:53:08;12.93;;;5.40;;
33266;SDS011;19638;49.080;11.896;2023-08-17T16:57:14;6.15;;;5.38;;
33266;SDS011;19638;49.080;11.896;2023-08-17T17:01:20;5.93;;;5.30;;
33266;SDS011;19638;49.080;11.896;2023-08-17T17:05:28;7.78;;;5.35;;
33266;SDS011;19638;49.080;11.896;2023-08-17T17:09:35;9.68;;;5.20;;
33266;SDS011;19638;49.080;11.896;2023-08-17T17:13:38;9.32;;;5.97;;
33266;SDS011;19638;49.080;11.896;2023-08-17T17:17:44;6.43;;;5.50;;
33266;SDS011;19638;49.080;11.896;2023-08-17T17:21:48;8.82;;;5.93;;
33266;SDS011;19638;49.080;11.896;2023-08-17T17:25:52;8.27;;;6.22;;
33266;SDS011;19638;49.080;11.896;2023-08-17T17:29:55;10.27;;;6.18;;
33266;SDS011;19638;49.080;11.896;2023-08-17T17:34:05;5.88;;;5.28;;
33266;SDS011;19638;49.080;11.896;2023-08-17T17:38:08;9.35;;;4.30;;
33266;SDS011;19638;49.080;11.896;2023-08-17T17:42:13;5.88;;;4.15;;
33266;SDS011;19638;49.080;11.896;2023-08-17T17:46:16;8.98;;;4.22;;
33266;SDS011;19638;49.080;11.896;2023-08-17T17:50:22;5.05;;;4.55;;
33266;SDS011;19638;49.080;11.896;2023-08-17T17:54:28;8.27;;;3.92;;
33266;SDS011;19638;49.080;11.896;2023-08-17T17:58:38;5.10;;;3.95;;
33266;SDS011;19638;49.080;11.896;2023-08-17T18:02:42;8.80;;;4.55;;
33266;SDS011;19638;49.080;11.896;2023-08-17T18:06:47;4.68;;;4.28;;
33266;SDS011;19638;49.080;11.896;2023-08-17T18:10:51;4.80;;;4.25;;
33266;SDS011;19638;49.080;11.896;2023-08-17T18:15:04;9.07;;;4.72;;
33266;SDS011;19638;49.080;11.896;2023-08-17T18:19:11;5.50;;;4.97;;
33266;SDS011;19638;49.080;11.896;2023-08-17T18:23:18;7.75;;;4.88;;
33266;SDS011;19638;49.080;11.896;2023-08-17T18:27:21;5.53;;;4.60;;
33266;SDS011;19638;49.080;11.896;2023-08-17T18:31:25;5.78;;;4.25;;
33266;SDS011;19638;49.080;11.896;2023-08-17T18:35:30;4.95;;;3.83;;
33266;SDS011;19638;49.080;11.896;2023-08-17T18:39:34;4.13;;;3.83;;
33266;SDS011;19638;49.080;11.896;2023-08-17T18:43:38;5.78;;;4.00;;
33266;SDS011;19638;49.080;11.896;2023-08-17T18:47:41;4.10;;;3.70;;
33266;SDS011;19638;49.080;11.896;2023-08-17T18:51:44;5.53;;;3.58;;
33266;SDS011;19638;49.080;11.896;2023-08-17T18:55:50;4.20;;;2.90;;
33266;SDS011;19638;49.080;11.896;2023-08-17T18:59:55;2.70;;;2.50;;
33266;SDS011;19638;49.080;11.896;2023-08-17T19:03:59;2.63;;;2.47;;
33266;SDS011;19638;49.080;11.896;2023-08-17T19:08:04;4.60;;;3.00;;
33266;SDS011;19638;49.080;11.896;2023-08-17T19:12:09;3.75;;;3.10;;
33266;SDS011;19638;49.080;11.896;2023-08-17T19:16:13;3.53;;;3.00;;
33266;SDS011;19638;49.080;11.896;2023-08-17T19:20:16;4.93;;;3.65;;
33266;SDS011;19638;49.080;11.896;2023-08-17T19:24:19;3.78;;;3.47;;
33266;SDS011;19638;49.080;11.896;2023-08-17T19:28:24;3.28;;;3.08;;
33266;SDS011;19638;49.080;11.896;2023-08-17T19:32:27;3.47;;;2.75;;
33266;SDS011;19638;49.080;11.896;2023-08-17T19:36:34;3.30;;;3.00;;
33266;SDS011;19638;49.080;11.896;2023-08-17T19:40:37;4.72;;;3.08;;
33266;SDS011;19638;49.080;11.896;2023-08-17T19:44:43;3.92;;;2.47;;
33266;SDS011;19638;49.080;11.896;2023-08-17T19:48:49;3.00;;;2.78;;
33266;SDS011;19638;49.080;11.896;2023-08-17T19:52:52;4.53;;;2.80;;
33266;SDS011;19638;49.080;11.896;2023-08-17T19:56:59;3.42;;;3.13;;
33266;SDS011;19638;49.080;11.896;2023-08-17T20:01:09;4.35;;;2.65;;
33266;SDS011;19638;49.080;11.896;2023-08-17T20:05:13;3.13;;;2.70;;
33266;SDS011;19638;49.080;11.896;2023-08-17T20:09:17;3.28;;;2.72;;
33266;SDS011;19638;49.080;11.896;2023-08-17T20:13:20;2.90;;;2.70;;
33266;SDS011;19638;49.080;11.896;2023-08-17T20:17:31;2.33;;;2.22;;
33266;SDS011;19638;49.080;11.896;2023-08-17T20:21:34;3.13;;;2.42;;
33266;SDS011;19638;49.080;11.896;2023-08-17T20:25:37;3.03;;;2.33;;
33266;SDS011;19638;49.080;11.896;2023-08-17T20:29:41;3.00;;;2.80;;
33266;SDS011;19638;49.080;11.896;2023-08-17T20:33:46;3.10;;;2.85;;
33266;SDS011;19638;49.080;11.896;2023-08-17T20:37:49;3.63;;;2.70;;
33266;SDS011;19638;49.080;11.896;2023-08-17T20:41:52;3.33;;;2.90;;
33266;SDS011;19638;49.080;11.896;2023-08-17T20:45:56;3.03;;;2.72;;
33266;SDS011;19638;49.080;11.896;2023-08-17T20:50:03;3.25;;;2.90;;
33266;SDS011;19638;49.080;11.896;2023-08-17T20:54:09;3.40;;;3.15;;
33266;SDS011;19638;49.080;11.896;2023-08-17T20:58:14;3.90;;;2.78;;
33266;SDS011;19638;49.080;11.896;2023-08-17T21:02:21;3.30;;;3.00;;
33266;SDS011;19638;49.080;11.896;2023-08-17T21:06:25;3.83;;;2.97;;
33266;SDS011;19638;49.080;11.896;2023-08-17T21:10:29;4.07;;;3.35;;
33266;SDS011;19638;49.080;11.896;2023-08-17T21:14:32;3.35;;;2.90;;
33266;SDS011;19638;49.080;11.896;2023-08-17T21:18:35;3.08;;;2.78;;
33266;SDS011;19638;49.080;11.896;2023-08-17T21:22:44;6.95;;;3.55;;
33266;SDS011;19638;49.080;11.896;2023-08-17T21:26:52;4.80;;;3.30;;
33266;SDS011;19638;49.080;11.896;2023-08-17T21:30:59;5.30;;;3.33;;
33266;SDS011;19638;49.080;11.896;2023-08-17T21:35:03;7.97;;;2.97;;
33266;SDS011;19638;49.080;11.896;2023-08-17T21:39:08;3.60;;;3.13;;
33266;SDS011;19638;49.080;11.896;2023-08-17T21:43:12;3.08;;;2.88;;
33266;SDS011;19638;49.080;11.896;2023-08-17T21:47:19;3.70;;;3.20;;
33266;SDS011;19638;49.080;11.896;2023-08-17T21:51:22;3.08;;;2.88;;
33266;SDS011;19638;49.080;11.896;2023-08-17T21:55:28;3.42;;;3.13;;
33266;SDS011;19638;49.080;11.896;2023-08-17T21:59:32;3.40;;;3.10;;
33266;SDS011;19638;49.080;11.896;2023-08-17T22:03:35;3.97;;;3.28;;
33266;SDS011;19638;49.080;11.896;2023-08-17T22:07:38;3.92;;;3.47;;
33266;SDS011;19638;49.080;11.896;2023-08-17T22:11:45;3.55;;;3.25;;
33266;SDS011;19638;49.080;11.896;2023-08-17T22:15:50;5.63;;;4.05;;
33266;SDS011;19638;49.080;11.896;2023-08-17T22:19:53;3.90;;;3.50;;
33266;SDS011;19638;49.080;11.896;2023-08-17T22:23:56;4.25;;;3.70;;
33266;SDS011;19638;49.080;11.896;2023-08-17T22:28:04;3.88;;;3.58;;
33266;SDS011;19638;49.080;11.896;2023-08-17T22:32:10;3.83;;;3.53;;
33266;SDS011;19638;49.080;11.896;2023-08-17T22:36:14;4.88;;;3.67;;
33266;SDS011;19638;49.080;11.896;2023-08-17T22:40:17;3.63;;;3.33;;
33266;SDS011;19638;49.080;11.896;2023-08-17T22:44:24;4.60;;;4.13;;
33266;SDS011;19638;49.080;11.896;2023-08-17T22:48:27;4.35;;;3.95;;
33266;SDS011;19638;49.080;11.896;2023-08-17T22:52:32;4.38;;;3.92;;
33266;SDS011;19638;49.080;11.896;2023-08-17T22:56:35;4.32;;;3.92;;
33266;SDS011;19638;49.080;11.896;2023-08-17T23:00:40;7.60;;;4.28;;
33266;SDS011;19638;49.080;11.896;2023-08-17T23:04:46;5.55;;;4.43;;
33266;SDS011;19638;49.080;11.896;2023-08-17T23:08:49;5.80;;;4.72;;
33266;SDS011;19638;49.080;11.896;2023-08-17T23:12:52;4.88;;;4.35;;
33266;SDS011;19638;49.080;11.896;2023-08-17T23:16:57;6.93;;;4.45;;
33266;SDS011;19638;49.080;11.896;2023-08-17T23:21:00;5.20;;;4.35;;
33266;SDS011;19638;49.080;11.896;2023-08-17T23:25:05;8.63;;;5.22;;
33266;SDS011;19638;49.080;11.896;2023-08-17T23:29:09;7.50;;;5.10;;
33266;SDS011;19638;49.080;11.896;2023-08-17T23:33:17;5.38;;;4.72;;
33266;SDS011;19638;49.080;11.896;2023-08-17T23:37:20;7.00;;;4.90;;
33266;SDS011;19638;49.080;11.896;2023-08-17T23:41:25;7.75;;;4.97;;
33266;SDS011;19638;49.080;11.896;2023-08-17T23:45:28;5.43;;;4.65;;
33266;SDS011;19638;49.080;11.896;2023-08-17T23:49:33;11.75;;;5.57;;
33266;SDS011;19638;49.080;11.896;2023-08-17T23:53:41;5.75;;;4.80;;
33266;SDS011;19638;49.080;11.896;2023-08-17T23:57:48;7.47;;;5.28;;
